Hlavní strana
METAR-TAF:

METAR-TAF

Letiště :

Ferrara, Itálie

zeměpisná šířka: 44-50N, zeměpisná délka: 011-37E, výška: 10 m

Aktuální stav počasí

Zpráva byla vytvořena před 1 hodinou a 5 minutami, v 09:55 UTC
Severoseverovýchodní vítr 5 kt
Teplota 32°C
Vlhkost vzduchu 49%
Tlak 1016 hPa
Viditelnost 10 km a více
Žádná oblačnost pod 1500 m, nevyskytují se cumulonimby.

METAR: LIPF 200955Z 03005KT CAVOK 32/20 Q1016 RMK SKC VIS MIN 9999

Čas: 13:00 (11:00 UTC)


TAF: chybějící

Stav a předpovědi počasí z více než 4 000 letišť (zprávy METAR a TAF).

Červené a žluté tečky na mapě představují dostupné meteorologické stanice.

Když kurzor umístíte na tečku, zobrazí se název stanice.

Pak kliknutím zobrazíte stav a předpověď počasí.

Chcete-li změnit mapu, kliknutím na zelené tlačítko se znaménkem +mapu přiblížíte, kliknutím na zelené tlačítko se znaménkem – mapu oddálíte a kliknutím na zelené šipky přejdete na sousední mapy.


METAR-TAF: